All
Riverwood Airport (Iron Gate, VA) 0VA2 Weather
There is no TAF data available at 0VA2 or any nearby airports.
There is no METAR data available at 0VA2. Showing METAR data for KHSP (11 mi N).
Recent HSP METAR history (no data for 0VA2)
| Date | Time (EDT) | Flight Rules | Wind Dir. | Speed | Type | Height AGL (ft) | Visibility | Temp (°C) | Temp (°F) | Dew Point (°C) | Dew Point (°F) | Rel. Humid. | Pressure | Density Altitude | Remarks |
|---|---|---|---|---|---|---|---|---|---|---|---|---|---|---|---|
| 31-Aug | 03:15PM | VFR | 280° | 6 kt | 10 miles | 25° | 77° | 19° | 66° | 66% | 30.29 in Hg | 5,335 ft | |||
| 31-Aug | 02:55PM | VFR | 270° | 5 kt | 10 miles | 24° | 75° | 18° | 64° | 70% | 30.30 in Hg | 5,205 ft | |||
| 31-Aug | 02:35PM | VFR | 270° | 6 kt | 10 miles | 25° | 77° | 19° | 66° | 68% | 30.30 in Hg | 5,325 ft | |||
| 31-Aug | 02:15PM | VFR | 260° | 8 kt | 10 miles | 25° | 77° | 18° | 64° | 66% | 30.30 in Hg | 5,325 ft | |||
| 31-Aug | 01:55PM | VFR | 10° | 3 kt | 10 miles | 24° | 75° | 19° | 66° | 71% | 30.30 in Hg | 5,205 ft | |||
| 31-Aug | 01:35PM | VFR | 320° | 4 kt | 10 miles | 25° | 77° | 19° | 66° | 71% | 30.31 in Hg | 5,315 ft | |||
| 31-Aug | 01:15PM | VFR | 310° | 3 kt | 10 miles | 24° | 75° | 19° | 66° | 74% | 30.31 in Hg | 5,195 ft | |||
| 31-Aug | 12:55PM | VFR | 310° | 7 kt | 10 miles | 24° | 75° | 19° | 66° | 72% | 30.31 in Hg | 5,195 ft | |||
| 31-Aug | 12:35PM | VFR | 290° | 7 kt | 10 miles | 24° | 75° | 19° | 66° | 74% | 30.32 in Hg | 5,185 ft | |||
| 31-Aug | 12:15PM | VFR | 270° | 7 kt | 10 miles | 23° | 73° | 19° | 66° | 79% | 30.32 in Hg | 5,065 ft | |||
| 31-Aug | 11:55AM | VFR | 300° | 5 kt | 10 miles | 23° | 73° | 19° | 66° | 78% | 30.32 in Hg | 5,065 ft | |||
| 31-Aug | 11:35AM | VFR | 280° | 7 kt | 10 miles | 23° | 73° | 20° | 68° | 83% | 30.32 in Hg | 5,065 ft | |||
| 31-Aug | 11:15AM | VFR | 280° | 7 kt | 10 miles |
23° | 73° | 20° | 68° | 80% | 30.32 in Hg | 5,065 ft | |||
| 31-Aug | 10:55AM | VFR | 270° | 7 kt | 7 miles |
23° | 73° | 19° | 66° | 80% | 30.32 in Hg | 5,065 ft | |||
| 31-Aug | 10:35AM | VFR | 270° | 7 kt | 10 miles | 23° | 73° | 19° | 66° | 82% | 30.31 in Hg | 5,075 ft | |||
| 31-Aug | 10:15AM | VFR | 270° | 6 kt | 10 miles | 22° | 71° | 19° | 66° | 84% | 30.31 in Hg | 4,955 ft | |||
| 31-Aug | 09:55AM | VFR | 280° | 6 kt | 10 miles | 22° | 71° | 19° | 66° | 84% | 30.31 in Hg | 4,955 ft | |||
| 31-Aug | 09:35AM | VFR | 280° | 6 kt | 10 miles | 22° | 71° | 19° | 66° | 85% | 30.31 in Hg | 4,955 ft | |||
| 31-Aug | 09:15AM | VFR | 270° | 7 kt | 10 miles | 21° | 69° | 19° | 66° | 84% | 30.31 in Hg | 4,835 ft | |||
| 31-Aug | 08:55AM | VFR | 280° | 6 kt | 10 miles | 21° | 69° | 19° | 66° | 85% | 30.31 in Hg | 4,835 ft | |||
| 31-Aug | 08:35AM | VFR | 260° | 5 kt | 10 miles |
21° | 69° | 19° | 66° | 87% | 30.31 in Hg | 4,835 ft | |||
| 31-Aug | 08:15AM | VFR | 270° | 5 kt | 7 miles | 20° | 68° | 18° | 64° | 88% | 30.30 in Hg | 4,725 ft | |||
| 31-Aug | 07:55AM | VFR | 270° | 6 kt | 7 miles | 20° | 68° | 18° | 64° | 89% | 30.30 in Hg | 4,725 ft | |||
| 31-Aug | 07:35AM | VFR | 270° | 5 kt | 7 miles | 20° | 68° | 18° | 64° | 91% | 30.30 in Hg | 4,725 ft |
Login
| Your browser is unsupported. upgrade your browser |
